Time;durP1;ratioP1;P1;durP2;ratioP2;P2;SDS_P1;SDS_P2;PMS_P1;PMS_P2;Temp;Humidity;BMP_temperature;BMP_pressure;BME280_temperature;BME280_humidity;BME280_pressure;Samples;Min_cycle;Max_cycle;Signal;HPM_P1;HPM_P2
2022/07/17 00:02:05;;;;;;;1.83;0.45;;;18.50;54.20;;;;;;5035303;28;20026;-96
2022/07/17 00:04:34;;;;;;;6.57;0.93;;;18.40;54.50;;;;;;5048263;28;20013;-96
2022/07/17 00:07:17;;;;;;;2.45;0.40;;;18.30;54.90;;;;;;5033061;28;20013;-96
2022/07/17 00:09:43;;;;;;;2.95;0.40;;;18.20;55.30;;;;;;5032160;28;20033;-95
2022/07/17 00:12:09;;;;;;;1.13;0.40;;;18.10;55.50;;;;;;5018646;28;20025;-95
2022/07/17 00:14:35;;;;;;;1.90;0.80;;;18.10;55.60;;;;;;5020415;28;20032;-94
2022/07/17 00:17:00;;;;;;;1.33;0.70;;;18.00;55.70;;;;;;5048297;28;20032;-96
2022/07/17 00:19:26;;;;;;;1.52;0.40;;;17.90;56.00;;;;;;5054587;28;20022;-96
2022/07/17 00:21:52;;;;;;;;;;;17.90;56.10;;;;;;5056403;28;20017;-96
2022/07/17 00:24:19;;;;;;;2.55;0.55;;;17.80;56.40;;;;;;5055352;28;19998;-96
2022/07/17 00:26:50;;;;;;;3.03;0.63;;;17.80;56.50;;;;;;5028050;28;20040;-96
2022/07/17 00:29:16;;;;;;;0.98;0.40;;;17.70;56.60;;;;;;4997097;28;20030;-94
2022/07/17 00:31:42;;;;;;;1.73;0.50;;;17.70;56.60;;;;;;4993387;28;20116;-93
2022/07/17 00:34:10;;;;;;;1.80;0.47;;;17.60;56.60;;;;;;4995016;28;20033;-95
2022/07/17 00:36:42;;;;;;;4.00;0.57;;;17.60;56.60;;;;;;5022025;28;20057;-96
2022/07/17 00:39:08;;;;;;;1.80;0.45;;;17.60;56.70;;;;;;4997364;28;20030;-96
2022/07/17 00:41:34;;;;;;;1.55;0.65;;;17.50;56.90;;;;;;4995953;28;20394;-94
2022/07/17 00:44:08;;;;;;;1.17;0.40;;;17.50;58.00;;;;;;5007920;28;20065;-95
2022/07/17 00:46:34;;;;;;;1.60;0.55;;;17.30;57.70;;;;;;5018176;28;20092;-96
2022/07/17 00:49:01;;;;;;;1.25;0.60;;;17.30;58.00;;;;;;5020317;28;20025;-95
2022/07/17 00:51:33;;;;;;;4.68;0.60;;;17.20;58.60;;;;;;5036061;28;20042;-83
2022/07/17 00:53:59;;;;;;;1.42;0.40;;;17.10;59.10;;;;;;5042142;28;20097;-96
2022/07/17 00:56:27;;;;;;;3.33;0.73;;;17.00;59.60;;;;;;5020327;28;20428;-95
2022/07/17 00:58:53;;;;;;;3.78;0.70;;;16.90;60.70;;;;;;5014294;28;20029;-96
2022/07/17 01:01:19;;;;;;;5.32;0.98;;;16.80;60.50;;;;;;5007793;28;20036;-96
2022/07/17 01:03:45;;;;;;;;;;;16.70;60.50;;;;;;5008170;28;20061;-96
2022/07/17 01:06:10;;;;;;;3.95;0.65;;;16.70;60.60;;;;;;5021227;28;19912;-93
2022/07/17 01:08:36;;;;;;;;;;;16.60;60.70;;;;;;5015669;28;20064;-94
2022/07/17 01:11:03;;;;;;;4.95;0.52;;;16.50;61.00;;;;;;5014611;28;19905;-94
2022/07/17 01:13:30;;;;;;;2.03;0.50;;;16.50;61.30;;;;;;5013454;28;20117;-95
2022/07/17 01:15:56;;;;;;;2.35;0.60;;;16.40;61.50;;;;;;5015020;28;20026;-93
2022/07/17 01:18:23;;;;;;;1.55;0.55;;;16.30;61.80;;;;;;5014982;28;20029;-93
2022/07/17 01:20:52;;;;;;;1.27;0.43;;;16.30;61.70;;;;;;5024537;28;20482;-96
2022/07/17 01:23:19;;;;;;;3.50;0.30;;;16.20;60.70;;;;;;5043419;28;20038;-96
2022/07/17 01:25:46;;;;;;;3.63;0.47;;;16.30;60.00;;;;;;5043393;28;20021;-96
2022/07/17 01:28:12;;;;;;;2.42;0.47;;;16.30;59.10;;;;;;5039440;28;20029;-93
2022/07/17 01:30:48;;;;;;;0.90;0.45;;;16.50;58.60;;;;;;5019988;28;20057;-94
2022/07/17 01:33:14;;;;;;;;;;;16.60;58.10;;;;;;5015827;28;20033;-96
2022/07/17 01:35:40;;;;;;;1.80;0.35;;;16.70;57.60;;;;;;5032336;28;19913;-94
2022/07/17 01:38:06;;;;;;;7.43;0.35;;;16.80;57.50;;;;;;5015683;28;20105;-95
2022/07/17 01:40:31;;;;;;;;;;;16.90;57.40;;;;;;5014544;28;20025;-93
2022/07/17 01:42:57;;;;;;;2.13;0.45;;;17.00;57.10;;;;;;5014477;28;19913;-94
2022/07/17 01:45:22;;;;;;;;;;;17.10;57.10;;;;;;5015944;28;20148;-94
2022/07/17 01:47:48;;;;;;;1.38;0.40;;;17.10;56.70;;;;;;5014647;28;19941;-96
2022/07/17 01:50:15;;;;;;;2.92;0.50;;;17.20;56.70;;;;;;5014895;28;20063;-94
2022/07/17 01:52:42;;;;;;;2.17;0.68;;;17.30;56.60;;;;;;5008252;28;20038;-92
2022/07/17 01:55:12;;;;;;;0.95;0.40;;;17.30;56.70;;;;;;4995253;28;20475;-94
2022/07/17 01:57:37;;;;;;;1.33;0.40;;;17.30;56.70;;;;;;4980337;28;20030;-94
2022/07/17 02:00:04;;;;;;;;;;;17.30;56.80;;;;;;4996418;28;20205;-93
2022/07/17 02:02:30;;;;;;;5.20;0.60;;;17.30;56.90;;;;;;4986008;28;19921;-93
2022/07/17 02:04:55;;;;;;;5.65;0.85;;;17.20;57.10;;;;;;4981090;28;20050;-93
2022/07/17 02:07:21;;;;;;;1.10;0.38;;;17.10;57.40;;;;;;4981067;28;20042;-92
2022/07/17 02:09:47;;;;;;;2.60;0.40;;;17.00;57.60;;;;;;4974974;28;20085;-95
2022/07/17 02:12:12;;;;;;;2.55;0.50;;;17.00;57.80;;;;;;4998131;28;20087;-94
2022/07/17 02:14:38;;;;;;;3.95;0.50;;;17.00;58.00;;;;;;4981840;28;20494;-93
2022/07/17 02:17:04;;;;;;;;;;;17.00;58.20;;;;;;4971924;28;20129;-96
2022/07/17 02:19:29;;;;;;;0.98;0.40;;;16.90;58.60;;;;;;4996617;28;19927;-94
2022/07/17 02:21:55;;;;;;;;;;;16.80;59.30;;;;;;5015102;28;20078;-93
2022/07/17 02:24:21;;;;;;;0.80;0.30;;;16.80;58.70;;;;;;5014559;28;19961;-95
2022/07/17 02:26:46;;;;;;;4.93;0.47;;;16.70;58.70;;;;;;5014302;28;20033;-94
2022/07/17 02:29:12;;;;;;;0.82;0.35;;;16.60;59.20;;;;;;5014026;28;20026;-94
2022/07/17 02:31:38;;;;;;;1.25;0.40;;;16.50;59.70;;;;;;5013905;28;20059;-93
2022/07/17 02:34:03;;;;;;;1.02;0.43;;;16.40;60.20;;;;;;5014270;28;20033;-94
2022/07/17 02:36:29;;;;;;;4.88;0.60;;;16.20;60.50;;;;;;5014359;28;20099;-93
2022/07/17 02:38:55;;;;;;;;;;;16.10;61.10;;;;;;5032163;28;20036;-95
2022/07/17 02:41:20;;;;;;;0.43;0.30;;;16.00;61.60;;;;;;5014353;28;19912;-95
2022/07/17 02:43:46;;;;;;;1.30;0.45;;;15.80;62.00;;;;;;5014017;28;20041;-94
2022/07/17 02:46:13;;;;;;;;;;;15.80;62.50;;;;;;5014477;28;20033;-94
2022/07/17 02:48:40;;;;;;;2.03;1.00;;;15.70;63.10;;;;;;4996770;28;19960;-96
2022/07/17 02:51:06;;;;;;;1.58;0.30;;;15.60;63.00;;;;;;5008042;28;20061;-95
2022/07/17 02:53:32;;;;;;;1.58;0.50;;;15.60;63.30;;;;;;5023697;28;20124;-94
2022/07/17 02:55:57;;;;;;;;;;;15.50;63.50;;;;;;5018614;28;20055;-94
2022/07/17 02:58:23;;;;;;;2.60;0.30;;;15.50;64.30;;;;;;5018922;28;19913;-93
2022/07/17 03:00:49;;;;;;;;;;;15.40;64.30;;;;;;5019382;28;20087;-94
2022/07/17 03:03:14;;;;;;;0.68;0.30;;;15.40;64.70;;;;;;5037647;28;19948;-94
2022/07/17 03:05:40;;;;;;;3.60;0.40;;;15.40;65.10;;;;;;5018363;28;20547;-95
2022/07/17 03:08:06;;;;;;;;;;;15.40;65.30;;;;;;5019262;28;20036;-94
2022/07/17 03:10:32;;;;;;;2.22;0.43;;;15.30;65.70;;;;;;5035413;28;19962;-96
2022/07/17 03:12:58;;;;;;;4.03;0.40;;;15.30;66.00;;;;;;5058069;28;20056;-94
2022/07/17 03:15:23;;;;;;;;;;;15.30;66.20;;;;;;5057940;28;20059;-95
2022/07/17 03:17:49;;;;;;;1.13;0.40;;;15.20;66.50;;;;;;5059881;28;20423;-94
2022/07/17 03:20:14;;;;;;;;;;;15.10;66.60;;;;;;5047556;28;20052;-93
2022/07/17 03:22:40;;;;;;;2.67;0.50;;;15.00;66.20;;;;;;5059855;28;19912;-94
2022/07/17 03:25:06;;;;;;;;;;;14.90;66.50;;;;;;5058505;28;20813;-94
2022/07/17 03:27:31;;;;;;;1.05;0.38;;;14.90;67.00;;;;;;5062763;28;20311;-94
2022/07/17 03:29:57;;;;;;;;;;;14.90;67.40;;;;;;5043819;28;20029;-94
2022/07/17 03:32:23;;;;;;;1.20;0.43;;;14.90;67.60;;;;;;5045999;28;20058;-94
2022/07/17 03:34:48;;;;;;;;;;;14.90;67.40;;;;;;5043855;28;20021;-94
2022/07/17 03:37:14;;;;;;;5.05;0.50;;;15.00;67.70;;;;;;5058434;28;20349;-95
2022/07/17 03:39:39;;;;;;;;;;;15.10;67.40;;;;;;5036468;28;20552;-93
2022/07/17 03:42:05;;;;;;;3.17;0.50;;;15.10;67.30;;;;;;5037023;28;19904;-95
2022/07/17 03:44:31;;;;;;;;;;;15.20;66.60;;;;;;5036962;28;20037;-95
2022/07/17 03:46:56;;;;;;;1.63;0.38;;;15.40;65.90;;;;;;5037899;28;19927;-95
2022/07/17 03:49:22;;;;;;;;;;;15.50;65.10;;;;;;5037275;28;20029;-95
2022/07/17 03:51:48;;;;;;;4.65;0.40;;;15.70;64.80;;;;;;5044834;28;19923;-95
2022/07/17 03:54:14;;;;;;;1.98;0.40;;;15.80;64.60;;;;;;5016499;28;20034;-94
2022/07/17 03:56:40;;;;;;;;;;;15.90;64.50;;;;;;5017497;28;20222;-94
2022/07/17 03:59:05;;;;;;;3.38;0.55;;;16.00;64.70;;;;;;5017085;28;19905;-95
2022/07/17 04:01:31;;;;;;;;;;;16.10;64.50;;;;;;5016962;28;20037;-95
2022/07/17 04:03:56;;;;;;;2.83;0.75;;;16.20;64.30;;;;;;5016755;28;19920;-95
2022/07/17 04:06:22;;;;;;;;;;;16.30;63.70;;;;;;5017015;28;20732;-94
2022/07/17 04:08:47;;;;;;;1.58;0.40;;;16.50;63.10;;;;;;5015627;28;20401;-95
2022/07/17 04:11:13;;;;;;;;;;;16.70;63.80;;;;;;5016682;28;20478;-95
2022/07/17 04:13:39;;;;;;;1.05;0.45;;;17.10;62.40;;;;;;5016403;28;19905;-94
2022/07/17 04:16:04;;;;;;;;;;;17.30;61.50;;;;;;5034350;28;20151;-94
2022/07/17 04:18:32;;;;;;;0.50;0.30;;;17.40;60.00;;;;;;5033560;28;20282;-92
2022/07/17 04:21:09;;;;;;;1.15;0.30;;;17.50;60.70;;;;;;5015417;28;20512;-95
2022/07/17 04:23:35;;;;;;;;;;;17.50;60.70;;;;;;5016290;28;20128;-94
2022/07/17 04:26:01;;;;;;;1.48;0.43;;;17.50;60.20;;;;;;5015734;28;19948;-93
2022/07/17 04:28:26;;;;;;;0.63;0.20;;;17.50;60.50;;;;;;5016919;28;20036;-92
2022/07/17 04:30:52;;;;;;;;;;;17.50;60.70;;;;;;5016074;28;20379;-93
2022/07/17 04:33:17;;;;;;;0.60;0.30;;;17.70;60.70;;;;;;5015757;28;19951;-93
2022/07/17 04:35:43;;;;;;;;;;;17.80;60.40;;;;;;5016064;28;20037;-92
2022/07/17 04:38:09;;;;;;;0.63;0.30;;;17.90;60.30;;;;;;5015596;28;19955;-92
2022/07/17 04:40:37;;;;;;;0.88;0.30;;;17.90;59.80;;;;;;5015494;28;20032;-92
2022/07/17 04:43:03;;;;;;;2.38;0.80;;;18.10;59.20;;;;;;5015702;28;20029;-94
2022/07/17 04:45:29;;;;;;;3.20;0.47;;;18.10;58.80;;;;;;5015290;28;20037;-92
2022/07/17 04:47:54;;;;;;;0.35;0.25;;;18.20;58.10;;;;;;5016094;28;20029;-94
2022/07/17 04:50:20;;;;;;;1.40;0.40;;;18.30;57.30;;;;;;5018240;28;20032;-93
2022/07/17 04:52:46;;;;;;;0.93;0.32;;;18.40;57.10;;;;;;5036790;28;20041;-94
2022/07/17 04:55:11;;;;;;;1.50;0.40;;;18.50;56.70;;;;;;5032138;28;20029;-93
2022/07/17 04:57:37;;;;;;;0.77;0.30;;;18.60;56.60;;;;;;5032255;28;20033;-93
2022/07/17 05:00:05;;;;;;;1.33;0.40;;;18.70;56.60;;;;;;5031635;28;20026;-92
2022/07/17 05:02:30;;;;;;;0.55;0.20;;;18.80;56.30;;;;;;5031368;28;20080;-93
2022/07/17 05:04:56;;;;;;;2.38;0.40;;;19.00;56.00;;;;;;5031531;28;20033;-93
2022/07/17 05:07:21;;;;;;;1.13;0.20;;;19.10;54.60;;;;;;5031810;28;20025;-93
2022/07/17 05:09:47;;;;;;;2.28;0.40;;;19.30;53.20;;;;;;5031116;28;20079;-91
2022/07/17 05:12:13;;;;;;;5.20;0.63;;;19.40;52.90;;;;;;5030631;28;20029;-92
2022/07/17 05:14:39;;;;;;;1.65;0.40;;;19.60;52.40;;;;;;5030964;28;20057;-93
2022/07/17 05:17:05;;;;;;;0.90;0.45;;;19.80;51.50;;;;;;5032393;28;20037;-94
2022/07/17 05:19:30;;;;;;;1.40;0.40;;;20.10;51.60;;;;;;5029904;28;20025;-94
2022/07/17 05:21:56;;;;;;;2.83;0.30;;;20.50;50.60;;;;;;5034254;28;20098;-94
2022/07/17 05:24:21;;;;;;;2.13;0.47;;;20.70;49.60;;;;;;5041726;28;20143;-92
2022/07/17 05:26:47;;;;;;;3.75;0.73;;;20.80;47.10;;;;;;5031278;28;20068;-91
2022/07/17 05:29:12;;;;;;;3.13;0.40;;;21.10;45.00;;;;;;5031099;28;20037;-91
2022/07/17 05:31:38;;;;;;;1.13;0.35;;;21.00;44.00;;;;;;5031366;28;20641;-91
2022/07/17 05:34:04;;;;;;;4.40;0.40;;;20.90;44.60;;;;;;5035702;28;20036;-91
2022/07/17 05:36:30;;;;;;;5.45;0.32;;;20.80;43.90;;;;;;5030863;28;20029;-92
2022/07/17 05:38:55;;;;;;;3.00;0.50;;;21.00;43.50;;;;;;5031502;28;20121;-92
2022/07/17 05:41:21;;;;;;;2.85;0.45;;;21.00;42.60;;;;;;5031528;28;20029;-93
2022/07/17 05:43:46;;;;;;;4.70;0.40;;;20.90;42.80;;;;;;5030910;28;20033;-93
2022/07/17 05:46:12;;;;;;;1.08;0.30;;;21.00;43.50;;;;;;5031264;28;20022;-91
2022/07/17 05:48:38;;;;;;;2.00;0.45;;;21.00;43.00;;;;;;5030671;28;20120;-93
2022/07/17 05:51:03;;;;;;;1.23;0.35;;;21.00;42.50;;;;;;5040924;28;20044;-94
2022/07/17 05:53:29;;;;;;;2.97;0.55;;;21.20;42.70;;;;;;5018858;28;20090;-94
2022/07/17 05:55:55;;;;;;;1.90;0.47;;;21.50;42.60;;;;;;5015484;28;20032;-92
2022/07/17 05:58:20;;;;;;;20.92;1.10;;;22.00;40.30;;;;;;5014721;28;20021;-93
2022/07/17 06:00:48;;;;;;;1.30;0.40;;;22.40;39.70;;;;;;5014416;28;20030;-92
2022/07/17 06:03:14;;;;;;;3.53;1.10;;;22.90;39.20;;;;;;5014394;28;20029;-93
2022/07/17 06:05:40;;;;;;;1.13;0.50;;;23.90;37.70;;;;;;5014288;28;20124;-93
2022/07/17 06:08:06;;;;;;;6.55;0.70;;;25.20;36.30;;;;;;5014455;28;20052;-93
2022/07/17 06:10:32;;;;;;;2.58;0.57;;;26.40;32.80;;;;;;5016066;28;20025;-93
2022/07/17 06:12:57;;;;;;;4.03;0.63;;;27.20;31.40;;;;;;5014476;28;20034;-92
2022/07/17 06:15:23;;;;;;;3.17;0.80;;;27.90;30.70;;;;;;5014070;28;20402;-94
2022/07/17 06:17:50;;;;;;;0.93;0.57;;;28.40;29.80;;;;;;5014504;28;20066;-93
2022/07/17 06:20:16;;;;;;;0.98;0.50;;;29.60;29.20;;;;;;5013830;28;20056;-93
2022/07/17 06:22:43;;;;;;;2.10;0.50;;;30.10;28.30;;;;;;4998171;28;20057;-93
2022/07/17 06:25:10;;;;;;;2.30;0.50;;;30.60;28.00;;;;;;4996567;28;20040;-91
2022/07/17 06:27:37;;;;;;;2.22;0.60;;;31.60;26.80;;;;;;4998863;28;20026;-90
2022/07/17 06:30:04;;;;;;;4.03;0.60;;;32.50;26.10;;;;;;4997985;28;20021;-90
2022/07/17 06:32:29;;;;;;;1.38;0.50;;;32.90;25.80;;;;;;5015177;28;20025;-90
2022/07/17 06:34:55;;;;;;;4.13;0.60;;;33.30;24.90;;;;;;5017861;28;20112;-92
2022/07/17 06:37:20;;;;;;;2.33;0.47;;;33.40;24.70;;;;;;5018614;28;20129;-92
2022/07/17 06:39:46;;;;;;;4.07;0.50;;;32.80;24.50;;;;;;5017880;28;20048;-92
2022/07/17 06:42:12;;;;;;;1.65;0.75;;;33.10;24.70;;;;;;5015599;28;20025;-92
2022/07/17 06:44:37;;;;;;;2.83;0.50;;;33.60;24.50;;;;;;5033839;28;20324;-93
2022/07/17 06:47:03;;;;;;;2.15;0.50;;;34.00;24.40;;;;;;5019243;28;20026;-92
2022/07/17 06:49:29;;;;;;;2.25;0.70;;;34.50;23.90;;;;;;5019439;28;20036;-92
2022/07/17 06:51:55;;;;;;;3.58;0.70;;;34.10;23.70;;;;;;5035734;28;20502;-91
2022/07/17 06:54:23;;;;;;;1.08;0.45;;;34.00;23.60;;;;;;5035508;28;20079;-91
2022/07/17 06:56:50;;;;;;;1.80;0.50;;;34.40;23.50;;;;;;5034884;28;20021;-91
2022/07/17 06:59:15;;;;;;;4.28;0.50;;;34.90;22.90;;;;;;5035860;28;20029;-91
2022/07/17 07:01:41;;;;;;;1.27;0.50;;;34.50;23.40;;;;;;5034844;28;20025;-91
2022/07/17 07:04:07;;;;;;;2.60;0.73;;;34.40;22.50;;;;;;5034919;28;20272;-92
2022/07/17 07:06:32;;;;;;;2.45;0.68;;;34.10;23.10;;;;;;5056300;28;20010;-91
2022/07/17 07:08:58;;;;;;;2.10;0.93;;;34.50;22.80;;;;;;5056637;28;20033;-93
2022/07/17 07:11:24;;;;;;;6.18;0.60;;;34.60;23.10;;;;;;5045825;28;20041;-92
2022/07/17 07:13:50;;;;;;;1.13;0.50;;;34.70;22.90;;;;;;5038595;28;20032;-92
2022/07/17 07:16:15;;;;;;;2.30;0.63;;;34.60;22.80;;;;;;5038207;28;20155;-92
2022/07/17 07:18:41;;;;;;;1.80;0.57;;;34.60;23.00;;;;;;5033495;28;20025;-92
2022/07/17 07:21:07;;;;;;;2.35;0.60;;;34.60;23.00;;;;;;5033694;28;20585;-92
2022/07/17 07:23:32;;;;;;;0.82;0.50;;;34.70;22.30;;;;;;5015667;28;20084;-91
2022/07/17 07:25:58;;;;;;;1.15;0.50;;;34.70;22.00;;;;;;5014973;28;20037;-91
2022/07/17 07:28:24;;;;;;;1.80;0.60;;;34.70;22.60;;;;;;5014024;28;20061;-90
2022/07/17 07:30:50;;;;;;;2.00;0.50;;;34.70;23.00;;;;;;5013911;28;20117;-92
2022/07/17 07:33:16;;;;;;;1.98;0.50;;;34.40;22.70;;;;;;5013707;28;20097;-91
2022/07/17 07:35:42;;;;;;;1.63;0.45;;;34.30;22.00;;;;;;5013535;28;20029;-91
2022/07/17 07:38:09;;;;;;;2.28;0.60;;;34.20;21.90;;;;;;5014402;28;20137;-91
2022/07/17 07:40:35;;;;;;;1.30;0.75;;;34.40;21.80;;;;;;5030182;28;20030;-91
2022/07/17 07:43:01;;;;;;;3.08;0.50;;;34.10;22.10;;;;;;5032840;28;20029;-90
2022/07/17 07:45:27;;;;;;;1.65;0.65;;;34.20;21.80;;;;;;5034223;28;20095;-90
2022/07/17 07:47:53;;;;;;;6.00;0.70;;;34.20;22.30;;;;;;5032823;28;20025;-91
2022/07/17 07:50:21;;;;;;;2.13;0.50;;;34.40;22.40;;;;;;5033951;28;20037;-91
2022/07/17 07:52:47;;;;;;;5.18;0.60;;;34.50;22.40;;;;;;5033794;28;20053;-92
2022/07/17 07:55:13;;;;;;;1.55;0.50;;;34.20;22.40;;;;;;5016128;28;20017;-91
2022/07/17 07:57:39;;;;;;;2.58;0.60;;;34.40;22.50;;;;;;5034049;28;20024;-91
2022/07/17 08:00:06;;;;;;;1.30;0.57;;;34.70;22.90;;;;;;5033547;28;20100;-92
2022/07/17 08:02:32;;;;;;;2.38;0.52;;;34.90;22.30;;;;;;5033189;28;20032;-92
2022/07/17 08:04:58;;;;;;;2.22;0.50;;;34.90;21.70;;;;;;5013829;28;20042;-91
2022/07/17 08:07:29;;;;;;;3.42;0.55;;;34.90;21.50;;;;;;4995951;28;20124;-91
2022/07/17 08:09:55;;;;;;;1.63;0.70;;;34.90;21.70;;;;;;4996710;28;20030;-91
2022/07/17 08:12:21;;;;;;;0.73;0.50;;;35.00;21.50;;;;;;4995945;28;20034;-91
2022/07/17 08:14:47;;;;;;;1.42;0.50;;;34.10;21.30;;;;;;4996589;28;20552;-91
2022/07/17 08:17:12;;;;;;;1.17;0.47;;;34.50;21.90;;;;;;4996289;28;20030;-91
2022/07/17 08:19:38;;;;;;;2.20;0.70;;;34.50;21.60;;;;;;4996183;28;20026;-92
2022/07/17 08:22:03;;;;;;;0.82;0.55;;;34.20;21.80;;;;;;4995693;28;20065;-91
2022/07/17 08:24:29;;;;;;;1.48;0.70;;;34.60;22.30;;;;;;4996207;28;20040;-91
2022/07/17 08:26:55;;;;;;;4.10;0.40;;;34.70;21.40;;;;;;4996189;28;20479;-92
2022/07/17 08:29:20;;;;;;;3.88;0.63;;;34.70;21.30;;;;;;4996123;28;20030;-91
2022/07/17 08:31:46;;;;;;;1.42;0.50;;;34.60;20.80;;;;;;4995476;28;20556;-91
2022/07/17 08:34:14;;;;;;;2.67;0.60;;;34.50;21.30;;;;;;4996301;28;20618;-91
2022/07/17 08:36:40;;;;;;;1.73;0.60;;;34.50;21.60;;;;;;4995731;28;20395;-92
2022/07/17 08:39:06;;;;;;;1.83;0.50;;;35.10;20.90;;;;;;4996152;28;20029;-90
2022/07/17 08:41:37;;;;;;;1.95;0.50;;;34.90;21.10;;;;;;4995598;28;20032;-91
2022/07/17 08:44:06;;;;;;;3.75;0.60;;;34.90;21.50;;;;;;4993525;28;20041;-90
2022/07/17 08:46:36;;;;;;;3.30;0.50;;;35.00;21.50;;;;;;4995244;28;20104;-91
2022/07/17 08:49:03;;;;;;;1.17;0.40;;;35.20;21.20;;;;;;4995083;28;20501;-90
2022/07/17 08:51:29;;;;;;;1.55;0.57;;;35.20;21.60;;;;;;5007683;28;20037;-91
2022/07/17 08:53:56;;;;;;;4.25;0.50;;;35.30;21.30;;;;;;5015308;28;20037;-91
2022/07/17 08:56:22;;;;;;;1.60;0.52;;;35.10;21.00;;;;;;5030233;28;20025;-91
2022/07/17 08:58:48;;;;;;;1.00;0.40;;;35.30;20.80;;;;;;5035016;28;20116;-91
2022/07/17 09:01:15;;;;;;;3.63;0.55;;;35.10;21.20;;;;;;5052641;28;20036;-90
2022/07/17 09:03:41;;;;;;;3.35;0.60;;;35.30;21.20;;;;;;5052620;28;20147;-90
2022/07/17 09:06:20;;;;;;;0.98;0.60;;;35.40;21.00;;;;;;5051620;28;20051;-90
2022/07/17 09:08:46;;;;;;;1.23;0.73;;;35.40;19.70;;;;;;5034550;28;20124;-91
2022/07/17 09:11:11;;;;;;;2.70;0.50;;;35.50;20.50;;;;;;5027553;28;20108;-90
2022/07/17 09:13:37;;;;;;;0.80;0.50;;;35.40;20.40;;;;;;5032508;28;20471;-91
2022/07/17 09:16:05;;;;;;;1.60;0.40;;;35.60;20.50;;;;;;5031961;28;20026;-89
2022/07/17 09:18:31;;;;;;;1.17;0.43;;;35.50;20.60;;;;;;5015484;28;20029;-91
2022/07/17 09:20:58;;;;;;;2.40;0.50;;;35.80;20.50;;;;;;5053178;28;20020;-91
2022/07/17 09:23:26;;;;;;;1.00;0.50;;;35.70;20.20;;;;;;5034110;28;20489;-91
2022/07/17 09:25:56;;;;;;;1.50;0.50;;;35.60;20.40;;;;;;5034632;28;20561;-91
2022/07/17 09:28:22;;;;;;;1.13;0.50;;;35.60;20.60;;;;;;5034246;28;20493;-91
2022/07/17 09:30:54;;;;;;;3.70;0.60;;;35.70;20.80;;;;;;5034277;28;20200;-93
2022/07/17 09:33:26;;;;;;;3.63;0.60;;;35.70;20.50;;;;;;5033908;28;20178;-91
2022/07/17 09:36:08;;;;;;;4.22;0.70;;;35.60;20.70;;;;;;5034321;28;20032;-91
2022/07/17 09:38:42;;;;;;;1.75;0.60;;;35.60;20.50;;;;;;5017596;28;20110;-90
2022/07/17 09:41:16;;;;;;;2.20;0.50;;;35.50;20.20;;;;;;5034539;28;20029;-92
2022/07/17 09:43:50;;;;;;;1.60;0.82;;;35.10;20.10;;;;;;5034144;28;20035;-91
2022/07/17 09:46:24;;;;;;;0.93;0.50;;;35.10;21.00;;;;;;5032876;28;20036;-92
2022/07/17 09:48:58;;;;;;;1.40;0.40;;;35.40;20.90;;;;;;5011306;28;20025;-92
2022/07/17 09:51:30;;;;;;;3.97;0.65;;;35.60;20.30;;;;;;5013050;28;20076;-91
2022/07/17 09:54:01;;;;;;;4.25;0.60;;;35.00;20.40;;;;;;5014524;28;20079;-91
2022/07/17 09:56:32;;;;;;;1.92;0.85;;;34.50;20.80;;;;;;5030942;28;20473;-91
2022/07/17 09:59:02;;;;;;;1.40;0.60;;;34.50;20.60;;;;;;5033682;28;20013;-90
2022/07/17 10:01:29;;;;;;;0.50;0.40;;;34.70;20.80;;;;;;5034056;28;20033;-89
2022/07/17 10:03:55;;;;;;;3.75;0.50;;;34.10;20.80;;;;;;5018362;28;20076;-89
2022/07/17 10:06:22;;;;;;;1.13;0.50;;;34.30;20.60;;;;;;5013926;28;20026;-90
2022/07/17 10:08:50;;;;;;;1.42;0.50;;;34.40;21.10;;;;;;5031355;28;20021;-91
2022/07/17 10:11:19;;;;;;;1.67;0.50;;;34.40;21.50;;;;;;5027655;28;20063;-90
2022/07/17 10:13:46;;;;;;;2.13;0.57;;;34.00;21.50;;;;;;5033757;28;20032;-90
2022/07/17 10:16:13;;;;;;;2.22;0.60;;;33.40;21.50;;;;;;5034353;28;20085;-90
2022/07/17 10:18:44;;;;;;;0.73;0.40;;;33.10;21.90;;;;;;5030956;28;20025;-90
2022/07/17 10:21:09;;;;;;;1.50;0.45;;;32.70;21.90;;;;;;5013734;28;20022;-91
2022/07/17 10:23:36;;;;;;;2.85;0.52;;;32.50;22.30;;;;;;5032342;28;20039;-92
2022/07/17 10:26:02;;;;;;;0.80;0.45;;;32.20;22.00;;;;;;5034149;28;20458;-93
2022/07/17 10:28:45;;;;;;;0.80;0.43;;;31.70;21.60;;;;;;5052846;28;20060;-93
2022/07/17 10:31:27;;;;;;;0.98;0.52;;;31.40;22.10;;;;;;5056075;28;20029;-94
2022/07/17 10:34:06;;;;;;;1.35;0.50;;;31.00;21.70;;;;;;5055300;28;20107;-94
2022/07/17 10:36:42;;;;;;;1.05;0.43;;;30.50;22.50;;;;;;5036056;28;20029;-94
2022/07/17 10:39:15;;;;;;;2.13;0.63;;;30.00;22.20;;;;;;5036685;28;20567;-94
2022/07/17 10:41:42;;;;;;;3.67;0.75;;;29.10;23.00;;;;;;5035504;28;20033;-94
2022/07/17 10:44:09;;;;;;;2.22;0.60;;;28.90;23.20;;;;;;5035706;28;20041;-95
2022/07/17 10:46:34;;;;;;;1.98;0.60;;;28.70;23.70;;;;;;5045999;28;20017;-94
2022/07/17 10:49:03;;;;;;;3.28;0.60;;;28.40;23.50;;;;;;5073462;28;20010;-95
2022/07/17 10:51:30;;;;;;;2.20;0.82;;;28.10;23.50;;;;;;5046638;28;20045;-92
2022/07/17 10:54:00;;;;;;;2.97;0.60;;;28.00;23.90;;;;;;5038014;28;20020;-94
2022/07/17 10:56:26;;;;;;;0.93;0.60;;;28.00;24.10;;;;;;5025235;28;20032;-94
2022/07/17 10:58:52;;;;;;;2.25;0.60;;;27.90;24.00;;;;;;5023562;28;20025;-93
2022/07/17 11:01:20;;;;;;;1.77;0.50;;;27.80;24.40;;;;;;5053737;28;20035;-94
2022/07/17 11:03:49;;;;;;;1.08;0.47;;;27.60;24.40;;;;;;5053822;28;20439;-94
2022/07/17 11:06:18;;;;;;;3.15;0.60;;;27.60;24.80;;;;;;5057600;28;20443;-96
2022/07/17 11:09:00;;;;;;;1.67;0.52;;;27.50;25.40;;;;;;5037363;28;20115;-94
2022/07/17 11:11:38;;;;;;;3.95;0.50;;;27.40;24.80;;;;;;5036371;28;20477;-93
2022/07/17 11:14:25;;;;;;;3.50;0.60;;;27.60;25.60;;;;;;5038476;28;20206;-95
2022/07/17 11:16:50;;;;;;;;;;;28.00;25.30;;;;;;5018332;28;20028;-93
2022/07/17 11:19:26;;;;;;;1.63;0.60;;;28.20;25.00;;;;;;5017868;28;20361;-95
2022/07/17 11:21:53;;;;;;;1.40;0.60;;;28.40;25.40;;;;;;5027425;28;20029;-94
2022/07/17 11:24:18;;;;;;;1.88;1.23;;;28.30;24.50;;;;;;5037257;28;20497;-94
2022/07/17 11:26:45;;;;;;;1.25;0.63;;;28.30;24.60;;;;;;5036580;28;20070;-95
2022/07/17 11:29:11;;;;;;;1.13;0.50;;;28.50;25.10;;;;;;5037704;28;20036;-95
2022/07/17 11:31:37;;;;;;;3.53;0.50;;;28.70;24.80;;;;;;5054364;28;20032;-93
2022/07/17 11:34:09;;;;;;;2.13;0.73;;;28.70;24.80;;;;;;5036581;28;20033;-94
2022/07/17 11:36:39;;;;;;;1.75;0.65;;;28.90;24.80;;;;;;5037176;28;20083;-94
2022/07/17 11:39:11;;;;;;;3.05;0.68;;;29.00;24.90;;;;;;5036547;28;20025;-94
2022/07/17 11:41:44;;;;;;;2.30;0.60;;;29.10;24.60;;;;;;5038445;28;20633;-94
2022/07/17 11:44:11;;;;;;;1.92;0.73;;;28.80;23.70;;;;;;5038672;28;20033;-94
2022/07/17 11:46:40;;;;;;;4.07;0.50;;;28.50;24.00;;;;;;5037512;28;20024;-94
2022/07/17 11:49:06;;;;;;;2.97;0.55;;;28.30;24.30;;;;;;5036702;28;20025;-95
2022/07/17 11:51:41;;;;;;;5.28;0.70;;;28.10;24.20;;;;;;5036430;28;20055;-93
2022/07/17 11:54:15;;;;;;;0.90;0.40;;;27.80;24.00;;;;;;5036371;28;20031;-96
2022/07/17 11:56:50;;;;;;;2.95;0.60;;;27.90;24.80;;;;;;5017057;28;20021;-94
2022/07/17 11:59:32;;;;;;;1.52;0.60;;;28.20;24.20;;;;;;5016667;28;20025;-93
2022/07/17 12:02:17;;;;;;;1.13;0.55;;;28.50;23.70;;;;;;5012103;28;20080;-94
2022/07/17 12:04:50;;;;;;;4.50;0.70;;;28.60;23.80;;;;;;5051481;28;20036;-93
2022/07/17 12:07:16;;;;;;;1.13;0.70;;;28.90;24.10;;;;;;5035465;28;20021;-95
2022/07/17 12:09:42;;;;;;;2.53;0.75;;;29.10;23.60;;;;;;5036305;28;20436;-93
2022/07/17 12:12:25;;;;;;;2.45;0.60;;;29.30;23.50;;;;;;5083871;28;20060;-96
2022/07/17 12:14:58;;;;;;;3.22;0.60;;;29.50;23.50;;;;;;5055694;28;20489;-93
2022/07/17 12:17:36;;;;;;;1.40;0.50;;;29.40;23.40;;;;;;5056376;28;20073;-94
2022/07/17 12:20:06;;;;;;;1.27;0.50;;;29.20;23.50;;;;;;5041567;28;20569;-95
2022/07/17 12:22:46;;;;;;;0.82;0.40;;;29.30;23.80;;;;;;5034324;28;20151;-93
2022/07/17 12:25:26;;;;;;;1.58;0.55;;;29.30;23.90;;;;;;5035976;28;20040;-94
2022/07/17 12:27:52;;;;;;;1.92;0.70;;;29.20;22.70;;;;;;5024149;28;20029;-94
2022/07/17 12:30:19;;;;;;;0.70;0.45;;;29.10;23.80;;;;;;5016831;28;20033;-95
2022/07/17 12:32:45;;;;;;;4.30;0.75;;;29.10;23.10;;;;;;5018590;28;20451;-93
2022/07/17 12:35:11;;;;;;;2.13;0.65;;;28.80;23.30;;;;;;5016387;28;20041;-91
2022/07/17 12:37:36;;;;;;;1.65;0.70;;;28.80;23.90;;;;;;5011342;28;20405;-93
2022/07/17 12:40:02;;;;;;;1.60;0.52;;;28.80;23.80;;;;;;5013713;28;21170;-94
2022/07/17 12:42:28;;;;;;;2.08;0.60;;;28.50;24.20;;;;;;5011442;28;20041;-95
2022/07/17 12:44:54;;;;;;;2.10;0.77;;;28.60;23.90;;;;;;5010193;28;20045;-95
2022/07/17 12:47:19;;;;;;;1.60;0.70;;;28.60;23.70;;;;;;4999212;28;20462;-95
2022/07/17 12:49:45;;;;;;;0.70;0.40;;;28.60;23.60;;;;;;5001242;28;20038;-95
2022/07/17 12:52:13;;;;;;;1.35;0.80;;;28.60;23.90;;;;;;5018360;28;20056;-94
2022/07/17 12:54:39;;;;;;;1.63;0.63;;;28.70;24.30;;;;;;4992145;28;20038;-94
2022/07/17 12:57:04;;;;;;;3.45;0.80;;;28.90;24.20;;;;;;4997025;28;20064;-95